Dades meteomassalio
Diari Summary for Noviembre 11, 2017 Units:  Metric    English   Both
« Previous Day
Next Day »
Diari Semanal Mensual Anual Personalitzat
  Maxima: Minima: Mijana:
Temperatura: 17.8 °C 10.0 °C 13.4 °C
Rosada: 9.9 °C 3.7 °C 7.6 °C
Humitat: 78 % 58 % 68 %
Velocitat del vent: 43.4 km/h 9.7 km/h 27 km/h
Racha vent: 43.4 km/h - -
Vent:- - WNW
Pressio: 1029.0 hPa 1026.3 hPa -
Pluja: 0.0 mm    
Historical Graphs
 
 
Tabular Data for Noviembre 11, 2017
Time Temperature Dew Point Pressure Wind Wind Speed Wind Gust Humidity Rainfall Rate (Hourly) solar Conditions
00:00 12.2 °C 8.3 °C 1029.0 hPa ESE 24.1 km/h 24.1 km/h 77 % 0.0 mm 0.0 W/m2 CLR
00:05 12.2 °C 8.3 °C 1029.0 hPa NW 31.5 km/h 31.5 km/h 77 % 0.0 mm 0.0 W/m2 CLR
00:10 12.2 °C 8.3 °C 1028.7 hPa NNW 24.1 km/h 24.1 km/h 77 % 0.0 mm 0.0 W/m2 CLR
00:15 12.2 °C 8.3 °C 1029.0 hPa NW 22.2 km/h 22.2 km/h 77 % 0.0 mm 0.0 W/m2 CLR
00:20 12.2 °C 8.3 °C 1028.7 hPa NW 25.9 km/h 25.9 km/h 77 % 0.0 mm 0.0 W/m2 CLR
00:25 12.2 °C 8.3 °C 1029.0 hPa NNW 25.9 km/h 25.9 km/h 77 % 0.0 mm 0.0 W/m2 CLR
00:30 11.7 °C 7.8 °C 1029.0 hPa NW 20.9 km/h 20.9 km/h 77 % 0.0 mm 0.0 W/m2 CLR
00:35 11.7 °C 7.8 °C 1029.0 hPa NW 18.5 km/h 18.5 km/h 77 % 0.0 mm 0.0 W/m2 CLR
00:40 11.7 °C 7.6 °C 1029.0 hPa NW 24.1 km/h 24.1 km/h 76 % 0.0 mm 0.0 W/m2 CLR
00:45 11.7 °C 7.6 °C 1029.0 hPa NW 24.1 km/h 24.1 km/h 76 % 0.0 mm 0.0 W/m2 CLR
00:50 11.7 °C 7.6 °C 1029.0 hPa WNW 20.9 km/h 20.9 km/h 76 % 0.0 mm 0.0 W/m2 CLR
00:55 11.7 °C 7.6 °C 1029.0 hPa NW 22.2 km/h 22.2 km/h 76 % 0.0 mm 0.0 W/m2 CLR
01:00 11.7 °C 7.6 °C 1029.0 hPa NW 17.7 km/h 17.7 km/h 76 % 0.0 mm 0.0 W/m2 CLR
01:05 11.7 °C 7.6 °C 1029.0 hPa NW 25.9 km/h 25.9 km/h 76 % 0.0 mm 0.0 W/m2 CLR
01:10 11.7 °C 7.6 °C 1029.0 hPa WNW 18.5 km/h 18.5 km/h 76 % 0.0 mm 0.0 W/m2 CLR
01:15 11.7 °C 7.6 °C 1029.0 hPa NW 25.7 km/h 25.7 km/h 76 % 0.0 mm 0.0 W/m2 CLR
01:20 11.7 °C 7.4 °C 1028.7 hPa NW 19.3 km/h 19.3 km/h 75 % 0.0 mm 0.0 W/m2 CLR
01:25 11.7 °C 7.6 °C 1028.7 hPa WNW 31.5 km/h 31.5 km/h 76 % 0.0 mm 0.0 W/m2 CLR
01:30 11.7 °C 7.6 °C 1028.7 hPa NW 25.7 km/h 25.7 km/h 76 % 0.0 mm 0.0 W/m2 CLR
01:35 11.7 °C 7.6 °C 1028.7 hPa NW 31.5 km/h 31.5 km/h 76 % 0.0 mm 0.0 W/m2 CLR
01:40 11.7 °C 7.6 °C 1028.7 hPa NW 31.5 km/h 31.5 km/h 76 % 0.0 mm 0.0 W/m2 CLR
01:45 11.7 °C 7.4 °C 1028.3 hPa WNW 29.6 km/h 29.6 km/h 75 % 0.0 mm 0.0 W/m2 CLR
01:50 11.7 °C 7.4 °C 1028.3 hPa NW 31.5 km/h 31.5 km/h 75 % 0.0 mm 0.0 W/m2 CLR
01:55 11.7 °C 7.4 °C 1028.7 hPa NW 29.6 km/h 29.6 km/h 75 % 0.0 mm 0.0 W/m2 CLR
02:00 11.7 °C 7.4 °C 1028.7 hPa NNW 25.9 km/h 25.9 km/h 75 % 0.0 mm 0.0 W/m2 CLR
02:05 11.7 °C 7.4 °C 1028.7 hPa WNW 20.4 km/h 20.4 km/h 75 % 0.0 mm 0.0 W/m2 CLR
02:10 11.7 °C 7.4 °C 1028.7 hPa NW 29.6 km/h 29.6 km/h 75 % 0.0 mm 0.0 W/m2 CLR
02:15 11.7 °C 7.2 °C 1028.7 hPa NNW 27.8 km/h 27.8 km/h 74 % 0.0 mm 0.0 W/m2 CLR
02:20 12.2 °C 7.7 °C 1028.7 hPa NW 24.1 km/h 24.1 km/h 74 % 0.0 mm 0.0 W/m2 CLR
02:25 11.7 °C 7.2 °C 1028.7 hPa WNW 22.2 km/h 22.2 km/h 74 % 0.0 mm 0.0 W/m2 CLR
02:30 11.7 °C 7.2 °C 1028.7 hPa NW 31.5 km/h 31.5 km/h 74 % 0.0 mm 0.0 W/m2 CLR
02:35 11.7 °C 7.2 °C 1028.7 hPa NW 27.8 km/h 27.8 km/h 74 % 0.0 mm 0.0 W/m2 CLR
02:40 11.7 °C 7.2 °C 1028.7 hPa NW 29.6 km/h 29.6 km/h 74 % 0.0 mm 0.0 W/m2 CLR
02:45 11.7 °C 7.2 °C 1028.7 hPa NW 25.9 km/h 25.9 km/h 74 % 0.0 mm 0.0 W/m2 CLR
02:50 11.7 °C 7.2 °C 1028.7 hPa NW 24.1 km/h 24.1 km/h 74 % 0.0 mm 0.0 W/m2 CLR
02:56 11.7 °C 7.2 °C 1028.7 hPa WNW 25.9 km/h 25.9 km/h 74 % 0.0 mm 0.0 W/m2 CLR
03:01 11.7 °C 7.2 °C 1028.3 hPa NW 25.9 km/h 25.9 km/h 74 % 0.0 mm 0.0 W/m2 CLR
03:06 11.7 °C 7.2 °C 1028.3 hPa NNW 24.1 km/h 24.1 km/h 74 % 0.0 mm 0.0 W/m2 CLR
03:11 11.7 °C 7.4 °C 1028.3 hPa NW 38.9 km/h 38.9 km/h 75 % 0.0 mm 0.0 W/m2 CLR
03:16 11.7 °C 7.4 °C 1028.0 hPa NNW 40.2 km/h 40.2 km/h 75 % 0.0 mm 0.0 W/m2 CLR
03:21 11.1 °C 6.8 °C 1028.0 hPa NNW 35.4 km/h 35.4 km/h 75 % 0.0 mm 0.0 W/m2 CLR
03:26 11.1 °C 6.8 °C 1028.0 hPa North 31.5 km/h 31.5 km/h 75 % 0.0 mm 0.0 W/m2 CLR
03:31 11.1 °C 6.8 °C 1028.0 hPa NNW 29.6 km/h 29.6 km/h 75 % 0.0 mm 0.0 W/m2 CLR
03:36 11.1 °C 7.1 °C 1028.0 hPa North 27.4 km/h 27.4 km/h 76 % 0.0 mm 0.0 W/m2 CLR
03:41 11.1 °C 7.1 °C 1028.3 hPa WNW 22.2 km/h 22.2 km/h 76 % 0.0 mm 0.0 W/m2 CLR
03:46 11.1 °C 7.1 °C 1028.3 hPa NNW 24.1 km/h 24.1 km/h 76 % 0.0 mm 0.0 W/m2 CLR
03:51 11.1 °C 7.1 °C 1028.3 hPa NW 22.2 km/h 22.2 km/h 76 % 0.0 mm 0.0 W/m2 CLR
03:53 11.1 °C 7.2 °C 1028.3 hPa NW 20.9 km/h 20.9 km/h 77 % 0.0 mm 0.0 W/m2 CLR
03:58 11.1 °C 7.2 °C 1028.7 hPa WNW 20.4 km/h 20.4 km/h 77 % 0.0 mm 0.0 W/m2 CLR
04:03 11.1 °C 7.2 °C 1028.7 hPa NW 18.5 km/h 18.5 km/h 77 % 0.0 mm 0.0 W/m2 CLR
04:08 11.1 °C 7.2 °C 1028.3 hPa WNW 18.5 km/h 18.5 km/h 77 % 0.0 mm 0.0 W/m2 CLR
04:13 11.1 °C 7.2 °C 1028.3 hPa NW 31.5 km/h 31.5 km/h 77 % 0.0 mm 0.0 W/m2 CLR
04:18 11.1 °C 7.1 °C 1028.3 hPa NW 25.9 km/h 25.9 km/h 76 % 0.0 mm 0.0 W/m2 CLR
04:24 11.7 °C 7.6 °C 1028.3 hPa NW 27.8 km/h 27.8 km/h 76 % 0.0 mm 0.0 W/m2 CLR
04:25 11.7 °C 7.6 °C 1028.3 hPa NW 27.8 km/h 27.8 km/h 76 % 0.0 mm 0.0 W/m2 CLR
04:30 11.7 °C 7.6 °C 1028.3 hPa NW 31.5 km/h 31.5 km/h 76 % 0.0 mm 0.0 W/m2 CLR
04:35 11.7 °C 7.6 °C 1028.3 hPa WNW 24.1 km/h 24.1 km/h 76 % 0.0 mm 0.0 W/m2 CLR
04:40 11.7 °C 7.6 °C 1028.3 hPa WNW 31.5 km/h 31.5 km/h 76 % 0.0 mm 0.0 W/m2 CLR
04:45 11.7 °C 7.6 °C 1028.3 hPa WNW 22.2 km/h 22.2 km/h 76 % 0.0 mm 0.0 W/m2 CLR
04:50 11.1 °C 7.1 °C 1028.3 hPa NW 30.6 km/h 30.6 km/h 76 % 0.0 mm 0.0 W/m2 CLR
04:55 11.1 °C 7.1 °C 1028.3 hPa WNW 16.7 km/h 16.7 km/h 76 % 0.0 mm 0.0 W/m2 CLR
05:00 11.1 °C 7.2 °C 1028.3 hPa NNW 29.0 km/h 29.0 km/h 77 % 0.0 mm 0.0 W/m2 CLR
05:05 11.1 °C 7.2 °C 1028.0 hPa NW 18.5 km/h 18.5 km/h 77 % 0.0 mm 0.0 W/m2 CLR
05:10 11.1 °C 7.2 °C 1028.0 hPa SW 27.8 km/h 27.8 km/h 77 % 0.0 mm 0.0 W/m2 CLR
05:15 11.1 °C 7.1 °C 1028.0 hPa NW 19.3 km/h 19.3 km/h 76 % 0.0 mm 0.0 W/m2 CLR
05:20 11.1 °C 7.2 °C 1028.0 hPa WNW 31.5 km/h 31.5 km/h 77 % 0.0 mm 0.0 W/m2 CLR
05:25 11.1 °C 7.2 °C 1028.3 hPa WNW 27.8 km/h 27.8 km/h 77 % 0.0 mm 0.0 W/m2 CLR
05:30 11.1 °C 7.1 °C 1028.0 hPa West 16.7 km/h 16.7 km/h 76 % 0.0 mm 0.0 W/m2 CLR
05:35 11.1 °C 7.2 °C 1028.0 hPa NNW 25.9 km/h 25.9 km/h 77 % 0.0 mm 0.0 W/m2 CLR
05:40 11.1 °C 7.2 °C 1028.3 hPa NNW 20.4 km/h 20.4 km/h 77 % 0.0 mm 0.0 W/m2 CLR
05:45 11.1 °C 7.2 °C 1028.3 hPa NNW 29.6 km/h 29.6 km/h 77 % 0.0 mm 0.0 W/m2 CLR
05:50 10.6 °C 6.7 °C 1028.3 hPa NW 24.1 km/h 24.1 km/h 77 % 0.0 mm 0.0 W/m2 CLR
05:55 10.6 °C 6.7 °C 1028.0 hPa WNW 29.6 km/h 29.6 km/h 77 % 0.0 mm 0.0 W/m2 CLR
06:00 11.1 °C 7.2 °C 1028.0 hPa NNW 35.2 km/h 35.2 km/h 77 % 0.0 mm 0.0 W/m2 CLR
06:05 11.1 °C 7.2 °C 1028.0 hPa WNW 25.9 km/h 25.9 km/h 77 % 0.0 mm 0.0 W/m2 CLR
06:10 11.1 °C 7.2 °C 1028.0 hPa NW 25.9 km/h 25.9 km/h 77 % 0.0 mm 0.0 W/m2 CLR
06:15 11.1 °C 7.2 °C 1028.0 hPa NNW 20.9 km/h 20.9 km/h 77 % 0.0 mm 0.0 W/m2 CLR
06:20 11.1 °C 7.2 °C 1028.0 hPa WNW 29.6 km/h 29.6 km/h 77 % 0.0 mm 0.0 W/m2 CLR
06:25 11.1 °C 7.2 °C 1028.0 hPa NW 37.0 km/h 37.0 km/h 77 % 0.0 mm 0.0 W/m2 CLR
06:30 11.1 °C 7.2 °C 1028.0 hPa NW 40.7 km/h 40.7 km/h 77 % 0.0 mm 0.0 W/m2 CLR
06:35 11.1 °C 7.2 °C 1027.7 hPa WNW 27.8 km/h 27.8 km/h 77 % 0.0 mm 0.0 W/m2 CLR
06:40 11.1 °C 7.2 °C 1028.0 hPa NNW 33.3 km/h 33.3 km/h 77 % 0.0 mm 0.0 W/m2 CLR
06:45 11.1 °C 7.2 °C 1028.0 hPa NW 42.6 km/h 42.6 km/h 77 % 0.0 mm 0.0 W/m2 CLR
06:50 10.6 °C 6.7 °C 1028.0 hPa NNW 38.9 km/h 38.9 km/h 77 % 0.0 mm 0.0 W/m2 CLR
06:55 10.6 °C 6.7 °C 1028.0 hPa NNW 31.5 km/h 31.5 km/h 77 % 0.0 mm 0.0 W/m2 CLR
07:00 11.1 °C 7.2 °C 1028.0 hPa NNW 35.4 km/h 35.4 km/h 77 % 0.0 mm 0.0 W/m2 CLR
07:05 11.1 °C 7.2 °C 1028.0 hPa NNW 37.0 km/h 37.0 km/h 77 % 0.0 mm 0.0 W/m2 CLR
07:10 11.1 °C 7.2 °C 1028.0 hPa NW 37.0 km/h 37.0 km/h 77 % 0.0 mm 0.0 W/m2 CLR
07:15 11.1 °C 7.4 °C 1028.0 hPa NNW 37.0 km/h 37.0 km/h 78 % 0.0 mm 0.0 W/m2 CLR
07:20 11.1 °C 7.4 °C 1028.0 hPa NW 31.5 km/h 31.5 km/h 78 % 0.0 mm 0.0 W/m2 CLR
07:25 10.6 °C 6.9 °C 1028.0 hPa NW 37.0 km/h 37.0 km/h 78 % 0.0 mm 0.0 W/m2 CLR
07:30 10.6 °C 6.7 °C 1028.3 hPa NW 24.1 km/h 24.1 km/h 77 % 0.0 mm 0.0 W/m2 CLR
07:35 11.1 °C 7.2 °C 1028.3 hPa NW 18.5 km/h 18.5 km/h 77 % 0.0 mm 0.0 W/m2 OVC
07:40 10.6 °C 6.9 °C 1028.3 hPa NW 22.2 km/h 22.2 km/h 78 % 0.0 mm 5.0 W/m2 OVC
07:41 11.1 °C 7.2 °C 1028.3 hPa NW 20.4 km/h 20.4 km/h 77 % 0.0 mm 5.0 W/m2 OVC
07:46 10.6 °C 6.7 °C 1028.3 hPa WNW 18.5 km/h 18.5 km/h 77 % 0.0 mm 5.0 W/m2 OVC
07:51 10.6 °C 6.7 °C 1028.3 hPa WNW 14.8 km/h 14.8 km/h 77 % 0.0 mm 9.0 W/m2 OVC
07:56 10.6 °C 6.7 °C 1028.7 hPa NW 18.5 km/h 18.5 km/h 77 % 0.0 mm 11.0 W/m2 OVC
08:01 10.6 °C 6.7 °C 1028.3 hPa NW 14.8 km/h 14.8 km/h 77 % 0.0 mm 12.0 W/m2 OVC
08:06 10.6 °C 6.9 °C 1028.7 hPa WNW 22.2 km/h 22.2 km/h 78 % 0.0 mm 16.0 W/m2 OVC
08:11 10.6 °C 6.7 °C 1028.7 hPa WNW 25.9 km/h 25.9 km/h 77 % 0.0 mm 21.0 W/m2 OVC
08:16 10.6 °C 6.7 °C 1028.7 hPa NW 16.7 km/h 16.7 km/h 77 % 0.0 mm 28.0 W/m2 OVC
08:21 10.6 °C 6.7 °C 1028.7 hPa WNW 18.5 km/h 18.5 km/h 77 % 0.0 mm 32.0 W/m2 OVC
08:26 11.1 °C 7.1 °C 1028.7 hPa NW 25.9 km/h 25.9 km/h 76 % 0.0 mm 35.0 W/m2 OVC
08:31 11.1 °C 7.1 °C 1028.7 hPa NW 19.3 km/h 19.3 km/h 76 % 0.0 mm 40.0 W/m2 OVC
08:36 11.1 °C 7.1 °C 1028.7 hPa NW 18.5 km/h 18.5 km/h 76 % 0.0 mm 62.0 W/m2 OVC
08:41 11.1 °C 7.1 °C 1028.7 hPa NW 16.7 km/h 16.7 km/h 76 % 0.0 mm 67.0 W/m2 OVC
08:46 11.7 °C 7.6 °C 1028.7 hPa WNW 18.5 km/h 18.5 km/h 76 % 0.0 mm 60.0 W/m2 BKN
08:51 11.7 °C 7.6 °C 1028.7 hPa NNW 18.5 km/h 18.5 km/h 76 % 0.0 mm 62.0 W/m2 SCT
08:56 11.7 °C 7.6 °C 1028.7 hPa NW 13.0 km/h 13.0 km/h 76 % 0.0 mm 65.0 W/m2 SCT
09:01 11.7 °C 7.4 °C 1028.7 hPa WNW 14.8 km/h 14.8 km/h 75 % 0.0 mm 81.0 W/m2 FEW
09:06 11.7 °C 7.4 °C 1028.7 hPa WNW 18.5 km/h 18.5 km/h 75 % 0.0 mm 105.0 W/m2 FEW
09:11 11.7 °C 7.4 °C 1029.0 hPa WNW 22.2 km/h 22.2 km/h 75 % 0.0 mm 127.0 W/m2 CLR
09:16 12.2 °C 7.9 °C 1029.0 hPa NNW 18.5 km/h 18.5 km/h 75 % 0.0 mm 121.0 W/m2 CLR
09:21 12.2 °C 7.9 °C 1029.0 hPa NW 24.1 km/h 24.1 km/h 75 % 0.0 mm 179.0 W/m2 CLR
09:26 12.2 °C 7.7 °C 1029.0 hPa WNW 18.5 km/h 18.5 km/h 74 % 0.0 mm 207.0 W/m2 CLR
09:31 12.2 °C 7.7 °C 1029.0 hPa NW 16.7 km/h 16.7 km/h 74 % 0.0 mm 172.0 W/m2 CLR
09:36 12.8 °C 8.1 °C 1028.7 hPa WNW 14.8 km/h 14.8 km/h 73 % 0.0 mm 151.0 W/m2 CLR
09:41 12.8 °C 8.1 °C 1029.0 hPa NW 22.2 km/h 22.2 km/h 73 % 0.0 mm 311.0 W/m2 CLR
09:46 13.3 °C 8.6 °C 1029.0 hPa NNW 22.5 km/h 22.5 km/h 73 % 0.0 mm 297.0 W/m2 CLR
09:51 13.3 °C 8.4 °C 1029.0 hPa NNW 24.1 km/h 24.1 km/h 72 % 0.0 mm 323.0 W/m2 CLR
09:56 13.3 °C 8.4 °C 1029.0 hPa NNW 22.5 km/h 22.5 km/h 72 % 0.0 mm 214.0 W/m2 CLR
10:01 13.3 °C 8.4 °C 1029.0 hPa WNW 22.2 km/h 22.2 km/h 72 % 0.0 mm 204.0 W/m2 CLR
10:06 13.3 °C 8.4 °C 1029.0 hPa NW 31.5 km/h 31.5 km/h 72 % 0.0 mm 420.0 W/m2 CLR
10:11 13.9 °C 8.7 °C 1029.0 hPa WNW 27.8 km/h 27.8 km/h 71 % 0.0 mm 399.0 W/m2 CLR
10:16 13.9 °C 8.5 °C 1029.0 hPa NNW 25.7 km/h 25.7 km/h 70 % 0.0 mm 406.0 W/m2 CLR
10:21 14.4 °C 8.8 °C 1028.7 hPa North 24.1 km/h 24.1 km/h 69 % 0.0 mm 387.0 W/m2 CLR
10:26 14.4 °C 8.6 °C 1028.7 hPa North 29.6 km/h 29.6 km/h 68 % 0.0 mm 316.0 W/m2 CLR
10:31 14.4 °C 8.6 °C 1028.7 hPa NNW 35.4 km/h 35.4 km/h 68 % 0.0 mm 427.0 W/m2 CLR
10:37 14.4 °C 8.6 °C 1028.7 hPa North 29.6 km/h 29.6 km/h 68 % 0.0 mm 172.0 W/m2 CLR
10:42 14.4 °C 8.6 °C 1028.7 hPa NW 22.2 km/h 22.2 km/h 68 % 0.0 mm 469.0 W/m2 CLR
10:47 15.0 °C 8.9 °C 1028.7 hPa NNW 33.3 km/h 33.3 km/h 67 % 0.0 mm 308.0 W/m2 CLR
10:52 15.0 °C 8.7 °C 1028.7 hPa NNW 37.0 km/h 37.0 km/h 66 % 0.0 mm 178.0 W/m2 CLR
10:57 15.6 °C 9.2 °C 1028.7 hPa NW 42.6 km/h 42.6 km/h 66 % 0.0 mm 178.0 W/m2 CLR
11:02 15.6 °C 9.2 °C 1028.7 hPa WNW 33.3 km/h 33.3 km/h 66 % 0.0 mm 482.0 W/m2 CLR
11:07 15.6 °C 9.2 °C 1028.7 hPa North 29.6 km/h 29.6 km/h 66 % 0.0 mm 244.0 W/m2 CLR
11:12 15.6 °C 9.2 °C 1028.7 hPa NNW 37.0 km/h 37.0 km/h 66 % 0.0 mm 387.0 W/m2 CLR
11:17 15.6 °C 9.0 °C 1028.7 hPa North 33.3 km/h 33.3 km/h 65 % 0.0 mm 582.0 W/m2 CLR
11:22 15.6 °C 9.0 °C 1028.7 hPa North 35.2 km/h 35.2 km/h 65 % 0.0 mm 380.0 W/m2 CLR
11:27 15.6 °C 9.0 °C 1028.7 hPa North 31.5 km/h 31.5 km/h 65 % 0.0 mm 255.0 W/m2 CLR
11:32 15.6 °C 9.0 °C 1028.7 hPa North 41.8 km/h 41.8 km/h 65 % 0.0 mm 364.0 W/m2 CLR
11:37 16.1 °C 9.5 °C 1028.3 hPa NNW 38.9 km/h 38.9 km/h 65 % 0.0 mm 309.0 W/m2 CLR
11:42 16.1 °C 9.5 °C 1028.7 hPa North 35.2 km/h 35.2 km/h 65 % 0.0 mm 497.0 W/m2 CLR
11:47 16.1 °C 9.3 °C 1028.7 hPa North 38.9 km/h 38.9 km/h 64 % 0.0 mm 510.0 W/m2 CLR
11:52 16.1 °C 9.3 °C 1028.7 hPa NNW 29.6 km/h 29.6 km/h 64 % 0.0 mm 431.0 W/m2 CLR
11:57 16.1 °C 9.1 °C 1028.7 hPa NNW 29.6 km/h 29.6 km/h 63 % 0.0 mm 415.0 W/m2 CLR
12:02 16.1 °C 9.1 °C 1028.3 hPa North 31.5 km/h 31.5 km/h 63 % 0.0 mm 668.0 W/m2 CLR
12:07 16.1 °C 9.3 °C 1028.3 hPa NNW 22.5 km/h 22.5 km/h 64 % 0.0 mm 522.0 W/m2 CLR
12:12 16.1 °C 9.1 °C 1028.3 hPa NNW 37.0 km/h 37.0 km/h 63 % 0.0 mm 636.0 W/m2 CLR
12:17 16.7 °C 9.6 °C 1028.3 hPa North 38.6 km/h 38.6 km/h 63 % 0.0 mm 629.0 W/m2 CLR
12:22 16.1 °C 9.3 °C 1028.0 hPa NNW 29.6 km/h 29.6 km/h 64 % 0.0 mm 603.0 W/m2 CLR
12:27 16.1 °C 9.1 °C 1028.0 hPa NNW 38.6 km/h 38.6 km/h 63 % 0.0 mm 603.0 W/m2 CLR
12:32 16.1 °C 9.1 °C 1028.0 hPa North 31.5 km/h 31.5 km/h 63 % 0.0 mm 413.0 W/m2 CLR
12:37 16.1 °C 9.1 °C 1027.7 hPa NNW 24.1 km/h 24.1 km/h 63 % 0.0 mm 599.0 W/m2 CLR
12:42 16.7 °C 9.3 °C 1027.7 hPa NNW 33.3 km/h 33.3 km/h 62 % 0.0 mm 596.0 W/m2 CLR
12:47 17.2 °C 9.9 °C 1027.7 hPa North 27.4 km/h 27.4 km/h 62 % 0.0 mm 543.0 W/m2 CLR
12:52 17.2 °C 9.6 °C 1027.7 hPa North 31.5 km/h 31.5 km/h 61 % 0.0 mm 475.0 W/m2 CLR
12:57 17.2 °C 9.6 °C 1027.7 hPa North 35.4 km/h 35.4 km/h 61 % 0.0 mm 483.0 W/m2 CLR
13:02 17.2 °C 9.6 °C 1027.7 hPa North 35.2 km/h 35.2 km/h 61 % 0.0 mm 575.0 W/m2 CLR
13:07 17.2 °C 9.6 °C 1027.3 hPa North 31.5 km/h 31.5 km/h 61 % 0.0 mm 608.0 W/m2 CLR
13:12 16.7 °C 8.9 °C 1027.3 hPa North 31.5 km/h 31.5 km/h 60 % 0.0 mm 153.0 W/m2 CLR
13:17 16.7 °C 9.1 °C 1027.3 hPa North 30.6 km/h 30.6 km/h 61 % 0.0 mm 118.0 W/m2 CLR
13:22 16.7 °C 9.1 °C 1027.3 hPa NW 33.3 km/h 33.3 km/h 61 % 0.0 mm 619.0 W/m2 CLR
13:27 17.2 °C 9.1 °C 1027.0 hPa North 33.3 km/h 33.3 km/h 59 % 0.0 mm 628.0 W/m2 CLR
13:32 17.8 °C 9.7 °C 1027.0 hPa NNW 35.2 km/h 35.2 km/h 59 % 0.0 mm 592.0 W/m2 CLR
13:37 17.2 °C 9.1 °C 1027.0 hPa NW 27.8 km/h 27.8 km/h 59 % 0.0 mm 459.0 W/m2 CLR
13:42 17.8 °C 9.4 °C 1027.0 hPa NW 25.9 km/h 25.9 km/h 58 % 0.0 mm 596.0 W/m2 CLR
13:47 17.2 °C 9.1 °C 1027.0 hPa North 31.5 km/h 31.5 km/h 59 % 0.0 mm 95.0 W/m2 CLR
13:52 16.7 °C 8.9 °C 1027.0 hPa NW 33.3 km/h 33.3 km/h 60 % 0.0 mm 100.0 W/m2 CLR
13:57 16.1 °C 8.6 °C 1026.6 hPa NW 20.9 km/h 20.9 km/h 61 % 0.0 mm 575.0 W/m2 CLR
14:02 17.2 °C 9.1 °C 1026.6 hPa NW 37.0 km/h 37.0 km/h 59 % 0.0 mm 613.0 W/m2 CLR
14:07 17.2 °C 9.4 °C 1026.6 hPa NW 20.9 km/h 20.9 km/h 60 % 0.0 mm 469.0 W/m2 CLR
14:12 17.8 °C 9.4 °C 1026.6 hPa NNE 37.0 km/h 37.0 km/h 58 % 0.0 mm 557.0 W/m2 CLR
14:17 17.8 °C 9.4 °C 1026.6 hPa North 33.3 km/h 33.3 km/h 58 % 0.0 mm 404.0 W/m2 CLR
14:22 17.2 °C 9.1 °C 1026.6 hPa NNW 24.1 km/h 24.1 km/h 59 % 0.0 mm 236.0 W/m2 CLR
14:27 17.8 °C 9.4 °C 1026.6 hPa NNW 33.3 km/h 33.3 km/h 58 % 0.0 mm 121.0 W/m2 CLR
14:32 17.2 °C 9.1 °C 1026.3 hPa NNW 27.8 km/h 27.8 km/h 59 % 0.0 mm 540.0 W/m2 CLR
14:37 17.8 °C 9.4 °C 1026.3 hPa NNW 32.2 km/h 32.2 km/h 58 % 0.0 mm 139.0 W/m2 CLR
14:43 17.2 °C 9.1 °C 1026.3 hPa North 25.7 km/h 25.7 km/h 59 % 0.0 mm 139.0 W/m2 CLR
14:47 16.7 °C 8.6 °C 1026.3 hPa NNW 27.8 km/h 27.8 km/h 59 % 0.0 mm 151.0 W/m2 CLR
14:52 16.7 °C 8.6 °C 1026.3 hPa NNW 24.1 km/h 24.1 km/h 59 % 0.0 mm 153.0 W/m2 CLR
14:58 16.7 °C 8.6 °C 1026.3 hPa North 33.3 km/h 33.3 km/h 59 % 0.0 mm 113.0 W/m2 CLR
15:03 16.7 °C 8.9 °C 1026.3 hPa NNW 22.5 km/h 22.5 km/h 60 % 0.0 mm 232.0 W/m2 CLR
15:08 17.2 °C 9.1 °C 1026.3 hPa NW 22.2 km/h 22.2 km/h 59 % 0.0 mm 218.0 W/m2 CLR
15:13 17.2 °C 8.9 °C 1026.3 hPa NNW 20.9 km/h 20.9 km/h 58 % 0.0 mm 185.0 W/m2 CLR
15:18 17.2 °C 8.9 °C 1026.3 hPa North 31.5 km/h 31.5 km/h 58 % 0.0 mm 176.0 W/m2 CLR
15:23 17.2 °C 8.9 °C 1026.3 hPa NW 29.6 km/h 29.6 km/h 58 % 0.0 mm 234.0 W/m2 CLR
15:28 17.2 °C 8.9 °C 1026.3 hPa NNE 38.9 km/h 38.9 km/h 58 % 0.0 mm 195.0 W/m2 CLR
15:33 17.2 °C 8.9 °C 1026.3 hPa NNW 31.5 km/h 31.5 km/h 58 % 0.0 mm 179.0 W/m2 CLR
15:38 17.2 °C 8.9 °C 1026.3 hPa NNE 29.0 km/h 29.0 km/h 58 % 0.0 mm 142.0 W/m2 CLR
15:43 17.2 °C 8.9 °C 1026.3 hPa NW 27.8 km/h 27.8 km/h 58 % 0.0 mm 251.0 W/m2 CLR
15:48 17.2 °C 8.9 °C 1026.3 hPa NW 27.8 km/h 27.8 km/h 58 % 0.0 mm 162.0 W/m2 CLR
15:53 17.2 °C 8.9 °C 1026.3 hPa NNW 22.2 km/h 22.2 km/h 58 % 0.0 mm 84.0 W/m2 CLR
15:58 17.2 °C 8.9 °C 1026.3 hPa NNW 35.2 km/h 35.2 km/h 58 % 0.0 mm 95.0 W/m2 CLR
16:03 17.2 °C 8.9 °C 1026.3 hPa North 35.2 km/h 35.2 km/h 58 % 0.0 mm 79.0 W/m2 CLR
16:08 16.7 °C 8.6 °C 1026.3 hPa NNW 31.5 km/h 31.5 km/h 59 % 0.0 mm 88.0 W/m2 CLR
16:13 16.7 °C 8.3 °C 1026.3 hPa North 42.6 km/h 42.6 km/h 58 % 0.0 mm 72.0 W/m2 FEW
16:18 16.7 °C 8.6 °C 1026.3 hPa NNW 31.5 km/h 31.5 km/h 59 % 0.0 mm 95.0 W/m2 FEW
16:23 16.7 °C 8.6 °C 1026.3 hPa North 22.2 km/h 22.2 km/h 59 % 0.0 mm 86.0 W/m2 CLR
16:28 16.7 °C 8.3 °C 1026.3 hPa North 31.5 km/h 31.5 km/h 58 % 0.0 mm 83.0 W/m2 CLR
16:33 16.7 °C 8.3 °C 1026.3 hPa North 43.4 km/h 43.4 km/h 58 % 0.0 mm 72.0 W/m2 FEW
16:38 16.7 °C 8.6 °C 1026.3 hPa NW 29.6 km/h 29.6 km/h 59 % 0.0 mm 74.0 W/m2 FEW
16:43 16.7 °C 8.6 °C 1026.3 hPa NW 31.5 km/h 31.5 km/h 59 % 0.0 mm 60.0 W/m2 FEW
16:48 16.1 °C 8.1 °C 1026.3 hPa NW 27.8 km/h 27.8 km/h 59 % 0.0 mm 56.0 W/m2 SCT
16:49 16.1 °C 8.1 °C 1026.3 hPa NW 25.9 km/h 25.9 km/h 59 % 0.0 mm 54.0 W/m2 SCT
16:54 16.1 °C 8.1 °C 1026.3 hPa NNW 31.5 km/h 31.5 km/h 59 % 0.0 mm 42.0 W/m2 BKN
16:59 16.1 °C 8.1 °C 1026.3 hPa NNW 25.9 km/h 25.9 km/h 59 % 0.0 mm 39.0 W/m2 BKN
17:04 16.1 °C 8.1 °C 1026.3 hPa NNW 27.8 km/h 27.8 km/h 59 % 0.0 mm 40.0 W/m2 BKN
17:09 16.1 °C 8.1 °C 1026.3 hPa NNW 32.2 km/h 32.2 km/h 59 % 0.0 mm 40.0 W/m2 BKN
17:14 16.1 °C 8.1 °C 1026.3 hPa NW 29.6 km/h 29.6 km/h 59 % 0.0 mm 37.0 W/m2 BKN
17:19 16.1 °C 8.1 °C 1026.3 hPa NNW 25.9 km/h 25.9 km/h 59 % 0.0 mm 25.0 W/m2 BKN
17:24 16.1 °C 8.3 °C 1026.3 hPa NNW 37.0 km/h 37.0 km/h 60 % 0.0 mm 26.0 W/m2 BKN
17:29 16.1 °C 8.3 °C 1026.3 hPa NW 33.3 km/h 33.3 km/h 60 % 0.0 mm 18.0 W/m2 BKN
17:34 15.6 °C 8.1 °C 1026.3 hPa NNW 38.9 km/h 38.9 km/h 61 % 0.0 mm 11.0 W/m2 BKN
17:39 15.6 °C 8.1 °C 1026.3 hPa NNW 33.3 km/h 33.3 km/h 61 % 0.0 mm 9.0 W/m2 BKN
17:44 15.6 °C 8.1 °C 1026.3 hPa NNW 35.2 km/h 35.2 km/h 61 % 0.0 mm 7.0 W/m2 BKN
17:49 15.6 °C 8.1 °C 1026.3 hPa NW 27.8 km/h 27.8 km/h 61 % 0.0 mm 5.0 W/m2 BKN
17:54 15.6 °C 8.1 °C 1026.3 hPa North 25.9 km/h 25.9 km/h 61 % 0.0 mm 0.0 W/m2 OVC
17:59 15.0 °C 7.6 °C 1026.3 hPa NNW 24.1 km/h 24.1 km/h 61 % 0.0 mm 0.0 W/m2 CLR
18:04 15.0 °C 7.8 °C 1026.6 hPa NNW 22.2 km/h 22.2 km/h 62 % 0.0 mm 0.0 W/m2 CLR
18:09 15.0 °C 7.8 °C 1026.6 hPa North 40.7 km/h 40.7 km/h 62 % 0.0 mm 0.0 W/m2 CLR
18:14 15.0 °C 7.8 °C 1026.6 hPa NNW 31.5 km/h 31.5 km/h 62 % 0.0 mm 0.0 W/m2 CLR
18:19 14.4 °C 7.2 °C 1026.6 hPa North 31.5 km/h 31.5 km/h 62 % 0.0 mm 0.0 W/m2 CLR
18:24 14.4 °C 7.5 °C 1026.6 hPa NNW 37.0 km/h 37.0 km/h 63 % 0.0 mm 0.0 W/m2 CLR
18:29 14.4 °C 7.5 °C 1026.6 hPa NW 27.8 km/h 27.8 km/h 63 % 0.0 mm 0.0 W/m2 CLR
18:34 14.4 °C 7.5 °C 1027.0 hPa NNW 25.9 km/h 25.9 km/h 63 % 0.0 mm 0.0 W/m2 CLR
18:39 14.4 °C 7.5 °C 1027.0 hPa NW 16.1 km/h 16.1 km/h 63 % 0.0 mm 0.0 W/m2 CLR
18:44 13.9 °C 6.9 °C 1027.0 hPa WNW 25.9 km/h 25.9 km/h 63 % 0.0 mm 0.0 W/m2 CLR
18:49 13.9 °C 7.2 °C 1027.0 hPa NW 29.6 km/h 29.6 km/h 64 % 0.0 mm 0.0 W/m2 CLR
18:54 13.9 °C 7.2 °C 1027.0 hPa NW 25.9 km/h 25.9 km/h 64 % 0.0 mm 0.0 W/m2 CLR
18:59 13.9 °C 7.2 °C 1027.0 hPa NW 31.5 km/h 31.5 km/h 64 % 0.0 mm 0.0 W/m2 CLR
19:04 13.9 °C 6.9 °C 1027.0 hPa NW 31.5 km/h 31.5 km/h 63 % 0.0 mm 0.0 W/m2 CLR
19:09 13.9 °C 6.9 °C 1027.0 hPa NNW 25.7 km/h 25.7 km/h 63 % 0.0 mm 0.0 W/m2 CLR
19:14 13.9 °C 7.2 °C 1027.0 hPa NW 33.8 km/h 33.8 km/h 64 % 0.0 mm 0.0 W/m2 CLR
19:19 13.9 °C 7.2 °C 1027.0 hPa NW 25.9 km/h 25.9 km/h 64 % 0.0 mm 0.0 W/m2 CLR
19:24 13.9 °C 6.9 °C 1027.0 hPa NW 19.3 km/h 19.3 km/h 63 % 0.0 mm 0.0 W/m2 CLR
19:25 13.9 °C 7.2 °C 1027.0 hPa NW 25.7 km/h 25.7 km/h 64 % 0.0 mm 0.0 W/m2 CLR
19:30 13.3 °C 6.7 °C 1027.0 hPa NNW 22.5 km/h 22.5 km/h 64 % 0.0 mm 0.0 W/m2 CLR
19:35 13.3 °C 6.7 °C 1027.0 hPa NW 20.4 km/h 20.4 km/h 64 % 0.0 mm 0.0 W/m2 CLR
19:40 13.3 °C 6.9 °C 1027.0 hPa NW 22.2 km/h 22.2 km/h 65 % 0.0 mm 0.0 W/m2 CLR
19:45 13.3 °C 6.9 °C 1027.0 hPa NNW 24.1 km/h 24.1 km/h 65 % 0.0 mm 0.0 W/m2 CLR
19:50 13.3 °C 6.9 °C 1027.0 hPa NNW 33.8 km/h 33.8 km/h 65 % 0.0 mm 0.0 W/m2 CLR
19:55 13.3 °C 6.9 °C 1027.0 hPa NW 24.1 km/h 24.1 km/h 65 % 0.0 mm 0.0 W/m2 CLR
20:00 13.3 °C 6.9 °C 1027.0 hPa NW 29.6 km/h 29.6 km/h 65 % 0.0 mm 0.0 W/m2 CLR
20:05 13.3 °C 6.9 °C 1027.0 hPa NW 22.2 km/h 22.2 km/h 65 % 0.0 mm 0.0 W/m2 CLR
20:10 13.3 °C 7.1 °C 1027.0 hPa WNW 20.4 km/h 20.4 km/h 66 % 0.0 mm 0.0 W/m2 CLR
20:15 13.3 °C 7.1 °C 1027.0 hPa NW 22.2 km/h 22.2 km/h 66 % 0.0 mm 0.0 W/m2 CLR
20:20 13.3 °C 7.1 °C 1027.0 hPa NW 24.1 km/h 24.1 km/h 66 % 0.0 mm 0.0 W/m2 CLR
20:25 13.3 °C 7.1 °C 1027.0 hPa WNW 22.2 km/h 22.2 km/h 66 % 0.0 mm 0.0 W/m2 CLR
20:35 12.8 °C 6.3 °C 1027.0 hPa WNW 22.2 km/h 22.2 km/h 65 % 0.0 mm 0.0 W/m2 CLR
20:40 12.8 °C 6.3 °C 1027.0 hPa WNW 22.5 km/h 22.5 km/h 65 % 0.0 mm 0.0 W/m2 CLR
20:45 12.8 °C 6.3 °C 1026.6 hPa NW 25.9 km/h 25.9 km/h 65 % 0.0 mm 0.0 W/m2 CLR
20:50 12.8 °C 6.3 °C 1026.6 hPa WNW 22.2 km/h 22.2 km/h 65 % 0.0 mm 0.0 W/m2 CLR
20:56 12.8 °C 6.3 °C 1026.6 hPa NW 24.1 km/h 24.1 km/h 65 % 0.0 mm 0.0 W/m2 CLR
21:01 12.8 °C 6.3 °C 1026.6 hPa NW 27.8 km/h 27.8 km/h 65 % 0.0 mm 0.0 W/m2 CLR
21:06 12.8 °C 6.3 °C 1026.6 hPa NW 42.6 km/h 42.6 km/h 65 % 0.0 mm 0.0 W/m2 CLR
21:11 12.8 °C 6.3 °C 1026.6 hPa NW 37.0 km/h 37.0 km/h 65 % 0.0 mm 0.0 W/m2 CLR
21:16 12.8 °C 6.3 °C 1027.0 hPa NW 24.1 km/h 24.1 km/h 65 % 0.0 mm 0.0 W/m2 CLR
21:21 12.8 °C 6.3 °C 1027.0 hPa NW 29.6 km/h 29.6 km/h 65 % 0.0 mm 0.0 W/m2 CLR
21:26 12.8 °C 6.3 °C 1027.0 hPa WNW 27.4 km/h 27.4 km/h 65 % 0.0 mm 0.0 W/m2 CLR
21:30 12.8 °C 6.3 °C 1026.6 hPa NW 29.6 km/h 29.6 km/h 65 % 0.0 mm 0.0 W/m2 CLR
21:31 12.8 °C 6.3 °C 1026.6 hPa NW 29.6 km/h 29.6 km/h 65 % 0.0 mm 0.0 W/m2 CLR
21:36 12.8 °C 6.3 °C 1026.6 hPa NW 29.6 km/h 29.6 km/h 65 % 0.0 mm 0.0 W/m2 CLR
21:41 12.8 °C 6.3 °C 1026.3 hPa NW 29.6 km/h 29.6 km/h 65 % 0.0 mm 0.0 W/m2 CLR
21:46 12.8 °C 6.3 °C 1026.6 hPa WNW 29.6 km/h 29.6 km/h 65 % 0.0 mm 0.0 W/m2 CLR
21:51 12.8 °C 6.3 °C 1026.6 hPa NW 25.9 km/h 25.9 km/h 65 % 0.0 mm 0.0 W/m2 CLR
21:56 12.8 °C 6.3 °C 1026.6 hPa NW 25.9 km/h 25.9 km/h 65 % 0.0 mm 0.0 W/m2 CLR
22:01 12.8 °C 6.3 °C 1026.6 hPa WNW 22.2 km/h 22.2 km/h 65 % 0.0 mm 0.0 W/m2 CLR
22:06 12.8 °C 6.1 °C 1026.6 hPa NW 27.8 km/h 27.8 km/h 64 % 0.0 mm 0.0 W/m2 CLR
22:11 12.8 °C 6.1 °C 1026.6 hPa West 20.4 km/h 20.4 km/h 64 % 0.0 mm 0.0 W/m2 CLR
22:16 12.2 °C 5.6 °C 1026.6 hPa WNW 20.4 km/h 20.4 km/h 64 % 0.0 mm 0.0 W/m2 CLR
22:21 12.2 °C 5.6 °C 1026.6 hPa NW 14.8 km/h 14.8 km/h 64 % 0.0 mm 0.0 W/m2 CLR
22:26 12.2 °C 5.6 °C 1026.6 hPa NW 27.8 km/h 27.8 km/h 64 % 0.0 mm 0.0 W/m2 CLR
22:31 12.2 °C 5.6 °C 1026.6 hPa NW 24.1 km/h 24.1 km/h 64 % 0.0 mm 0.0 W/m2 CLR
22:36 12.2 °C 5.6 °C 1026.6 hPa WNW 25.9 km/h 25.9 km/h 64 % 0.0 mm 0.0 W/m2 CLR
22:41 12.2 °C 5.6 °C 1027.0 hPa WSW 18.5 km/h 18.5 km/h 64 % 0.0 mm 0.0 W/m2 CLR
22:46 12.2 °C 5.8 °C 1026.6 hPa WNW 18.5 km/h 18.5 km/h 65 % 0.0 mm 0.0 W/m2 CLR
22:51 12.2 °C 5.8 °C 1026.6 hPa NW 20.4 km/h 20.4 km/h 65 % 0.0 mm 0.0 W/m2 CLR
22:56 11.7 °C 5.3 °C 1026.6 hPa WNW 19.3 km/h 19.3 km/h 65 % 0.0 mm 0.0 W/m2 CLR
23:01 11.7 °C 5.3 °C 1026.6 hPa West 18.5 km/h 18.5 km/h 65 % 0.0 mm 0.0 W/m2 CLR
23:06 11.7 °C 5.3 °C 1026.6 hPa WSW 14.8 km/h 14.8 km/h 65 % 0.0 mm 0.0 W/m2 CLR
23:12 11.7 °C 5.5 °C 1026.6 hPa West 14.8 km/h 14.8 km/h 66 % 0.0 mm 0.0 W/m2 CLR
23:17 11.7 °C 5.7 °C 1026.6 hPa WSW 12.9 km/h 12.9 km/h 67 % 0.0 mm 0.0 W/m2 CLR
23:22 11.7 °C 5.7 °C 1026.6 hPa West 13.0 km/h 13.0 km/h 67 % 0.0 mm 0.0 W/m2 CLR
23:27 11.1 °C 5.2 °C 1026.6 hPa West 16.7 km/h 16.7 km/h 67 % 0.0 mm 0.0 W/m2 CLR
23:32 11.1 °C 5.2 °C 1026.6 hPa West 9.7 km/h 9.7 km/h 67 % 0.0 mm 0.0 W/m2 CLR
23:37 10.6 °C 4.7 °C 1026.6 hPa WNW 16.7 km/h 16.7 km/h 67 % 0.0 mm 0.0 W/m2 CLR
23:42 10.0 °C 3.9 °C 1026.6 hPa WNW 25.9 km/h 25.9 km/h 66 % 0.0 mm 0.0 W/m2 CLR
23:47 10.0 °C 3.9 °C 1026.3 hPa NW 20.4 km/h 20.4 km/h 66 % 0.0 mm 0.0 W/m2 CLR
23:52 10.0 °C 3.7 °C 1026.3 hPa West 18.5 km/h 18.5 km/h 65 % 0.0 mm 0.0 W/m2 CLR
23:57 10.6 °C 4.2 °C 1026.3 hPa WNW 22.2 km/h 22.2 km/h 65 % 0.0 mm 0.0 W/m2 CLR
Lo Temps de Massalio
Compliments of Weather Underground - 1.25 mb